createdAt,value
2023-05-15T00:00:28.973Z,100026.71
2023-05-15T00:05:52.473Z,100018.50
2023-05-15T00:11:01.598Z,100021.56
2023-05-15T00:16:07.684Z,100017.58
2023-05-15T00:21:10.336Z,100008.42
2023-05-15T00:26:15.612Z,100002.98
2023-05-15T00:31:18.260Z,99997.84
2023-05-15T00:36:21.999Z,99987.48
2023-05-15T00:41:28.518Z,99980.31
2023-05-15T00:46:32.550Z,99973.45
2023-05-15T00:51:35.546Z,99973.05
2023-05-15T00:56:39.148Z,99970.11
2023-05-15T01:01:41.740Z,99962.83
2023-05-15T01:06:44.431Z,99956.44
2023-05-15T01:11:50.019Z,99957.30
2023-05-15T01:16:52.620Z,99952.59
2023-05-15T01:22:17.174Z,99946.89
2023-05-15T01:27:32.054Z,99938.17
2023-05-15T01:32:43.929Z,99937.65
2023-05-15T01:37:51.257Z,99933.48
2023-05-15T01:43:03.688Z,99930.61
2023-05-15T01:48:08.601Z,99924.82
2023-05-15T01:53:12.527Z,99916.95
2023-05-15T01:58:16.005Z,99914.19
2023-05-15T02:03:19.882Z,99908.45
2023-05-15T02:08:25.617Z,99907.55
2023-05-15T02:13:28.728Z,99907.45
2023-05-15T02:18:31.319Z,99907.00
2023-05-15T02:23:34.849Z,99898.56
2023-05-15T02:28:51.858Z,99891.27
2023-05-15T02:34:03.320Z,99874.98
2023-05-15T02:39:06.854Z,99866.91
2023-05-15T02:44:11.408Z,99863.35
2023-05-15T02:49:15.405Z,99859.47
2023-05-15T02:54:18.599Z,99858.20
2023-05-15T02:59:21.906Z,99853.27
2023-05-15T03:04:24.660Z,99849.35
2023-05-15T03:09:27.565Z,99843.04
2023-05-15T03:14:30.138Z,99828.52
2023-05-15T03:19:32.700Z,99822.39
2023-05-15T03:24:35.318Z,99807.30
2023-05-15T03:29:38.385Z,99798.24
2023-05-15T03:34:41.514Z,99787.98
2023-05-15T03:39:44.087Z,99777.38
2023-05-15T03:44:46.630Z,99777.07
2023-05-15T03:49:49.201Z,99772.36
2023-05-15T03:54:51.984Z,99775.16
2023-05-15T03:59:54.507Z,99786.46
2023-05-15T04:04:57.417Z,99768.30
2023-05-15T04:10:03.554Z,99767.98
2023-05-15T04:15:23.794Z,99776.39
2023-05-15T04:20:26.801Z,99766.23
2023-05-15T04:25:29.378Z,99766.65
2023-05-15T04:30:31.888Z,99767.26
2023-05-15T04:35:34.578Z,99768.94
2023-05-15T04:40:37.202Z,99768.42
2023-05-15T04:45:39.767Z,99744.30
2023-05-15T04:50:42.276Z,99734.85
2023-05-15T04:55:44.917Z,99744.94
2023-05-15T05:00:47.522Z,99750.84
2023-05-15T05:05:50.108Z,99742.17
2023-05-15T05:10:58.843Z,99734.76
2023-05-15T05:16:01.577Z,99732.55
2023-05-15T05:21:06.419Z,99722.39
2023-05-15T05:26:09.010Z,99714.36
2023-05-15T05:31:12.141Z,99706.20
2023-05-15T05:36:15.640Z,99703.04
2023-05-15T05:41:18.242Z,99704.89
2023-05-15T05:46:21.151Z,99704.60
2023-05-15T05:51:23.795Z,99701.25
2023-05-15T05:56:26.550Z,99704.95
2023-05-15T06:01:29.379Z,99709.10
2023-05-15T06:06:31.952Z,99698.03
2023-05-15T06:11:34.504Z,99695.85
2023-05-15T06:16:37.134Z,99697.95
2023-05-15T06:21:39.759Z,99689.89
2023-05-15T06:26:42.589Z,99682.59
2023-05-15T06:31:45.216Z,99676.42
2023-05-15T06:36:48.004Z,99665.52
2023-05-15T06:41:50.624Z,99656.73
2023-05-15T06:46:53.463Z,99652.35
2023-05-15T06:51:56.056Z,99648.09
2023-05-15T06:56:58.691Z,99644.66
2023-05-15T07:02:03.035Z,99643.23
2023-05-15T07:07:06.281Z,99641.04
2023-05-15T07:12:09.093Z,99635.08
2023-05-15T07:17:12.898Z,99630.11
2023-05-15T07:22:15.654Z,99632.35
2023-05-15T07:27:18.377Z,99631.08
2023-05-15T07:32:21.289Z,99628.34
2023-05-15T07:37:24.802Z,99630.95
2023-05-15T07:42:27.313Z,99638.04
2023-05-15T07:47:29.860Z,99631.77
2023-05-15T07:52:32.952Z,99636.61
2023-05-15T07:57:35.615Z,99639.73
2023-05-15T08:02:38.518Z,99639.97
2023-05-15T08:07:41.127Z,99632.91
2023-05-15T08:12:46.496Z,99614.98
2023-05-15T08:17:49.110Z,99592.54
2023-05-15T08:22:51.680Z,99601.09
2023-05-15T08:27:54.274Z,99599.20
2023-05-15T08:32:56.849Z,99598.48
2023-05-15T08:37:59.519Z,99597.95
2023-05-15T08:43:15.857Z,99580.17
2023-05-15T08:48:21.952Z,99553.33
2023-05-15T08:53:25.429Z,99549.37
2023-05-15T08:58:28.633Z,99539.60
2023-05-15T09:03:31.230Z,99530.06
2023-05-15T09:08:34.448Z,99523.74
2023-05-15T09:13:37.000Z,99514.78
2023-05-15T09:18:40.312Z,99521.33
2023-05-15T09:23:43.731Z,99516.64
2023-05-15T09:28:46.392Z,99513.61
2023-05-15T09:34:00.404Z,99513.31
2023-05-15T09:39:03.302Z,99513.59
2023-05-15T09:44:18.693Z,99507.82
2023-05-15T09:49:23.295Z,99502.23
2023-05-15T09:54:35.279Z,99499.45
2023-05-15T09:59:45.741Z,99503.78
2023-05-15T10:04:54.532Z,99496.77
2023-05-15T10:09:57.707Z,99488.81
2023-05-15T10:15:01.988Z,99480.03
2023-05-15T10:20:06.977Z,99496.92
2023-05-15T10:25:18.541Z,99504.06
2023-05-15T10:30:25.989Z,99498.26
2023-05-15T10:35:29.269Z,99498.64
2023-05-15T10:40:33.022Z,99496.89
2023-05-15T10:45:35.953Z,99486.73
2023-05-15T10:50:41.667Z,99471.34
2023-05-15T10:55:46.045Z,99467.69
2023-05-15T11:00:48.581Z,99489.63
2023-05-15T11:06:12.537Z,99500.83
2023-05-15T11:11:47.115Z,99492.73
2023-05-15T11:16:52.803Z,99473.09
2023-05-15T11:21:58.138Z,99462.70
2023-05-15T11:27:02.413Z,99458.52
2023-05-15T11:32:41.255Z,99458.15
2023-05-15T11:37:46.664Z,99452.23
2023-05-15T11:43:06.616Z,99449.08
2023-05-15T11:48:13.538Z,99438.36
2023-05-15T11:53:16.910Z,99438.49
2023-05-15T11:58:21.472Z,99435.48
2023-05-15T12:03:25.560Z,99437.35
2023-05-15T12:08:37.407Z,99434.36
2023-05-15T12:13:40.228Z,99432.64
2023-05-15T12:18:42.860Z,99429.52
2023-05-15T12:28:58.808Z,99424.86
2023-05-15T12:34:01.957Z,99413.20
2023-05-15T12:39:07.889Z,99403.84
2023-05-15T12:44:20.861Z,99399.92
2023-05-15T12:49:23.642Z,99395.67
2023-05-15T12:54:26.249Z,99391.55
2023-05-15T12:59:29.900Z,99383.78
2023-05-15T13:04:33.499Z,99369.64
2023-05-15T13:09:36.150Z,99360.59
2023-05-15T13:14:38.655Z,99350.42
2023-05-15T13:19:41.143Z,99345.46
2023-05-15T13:24:46.076Z,99332.52
2023-05-15T13:29:48.628Z,99313.52
2023-05-15T13:34:54.556Z,99305.86
2023-05-15T13:39:57.171Z,99293.77
2023-05-15T13:44:59.757Z,99284.80
2023-05-15T13:50:03.320Z,99278.86
2023-05-15T13:55:07.358Z,99273.02
2023-05-15T14:00:13.065Z,99271.33
2023-05-15T14:05:16.854Z,99259.73
2023-05-15T14:10:19.743Z,99246.15
2023-05-15T14:15:22.333Z,99248.91
2023-05-15T14:20:25.148Z,99238.36
2023-05-15T14:25:27.946Z,99241.52
2023-05-15T14:30:30.629Z,99229.70
2023-05-15T14:35:33.262Z,99236.29
2023-05-15T14:40:35.826Z,99227.34
2023-05-15T14:45:38.461Z,99223.36
2023-05-15T14:50:41.648Z,99219.56
2023-05-15T14:55:44.182Z,99214.34
2023-05-15T15:00:48.246Z,99210.98
2023-05-15T15:05:53.961Z,99202.58
2023-05-15T15:10:57.438Z,99197.42
2023-05-15T15:16:00.005Z,99187.09
2023-05-15T15:21:03.600Z,99174.96
2023-05-15T15:26:06.092Z,99169.65
2023-05-15T15:31:10.008Z,99164.09
2023-05-15T15:36:12.630Z,99161.88
2023-05-15T15:41:15.225Z,99162.00
2023-05-15T15:46:17.959Z,99152.27
2023-05-15T15:51:20.893Z,99150.83
2023-05-15T15:56:23.473Z,99145.36
2023-05-15T16:01:26.031Z,99139.67
2023-05-15T16:06:28.684Z,99137.65
2023-05-15T16:11:31.853Z,99134.21
2023-05-15T16:16:34.376Z,99134.81
2023-05-15T16:21:37.066Z,99130.48
2023-05-15T16:26:39.913Z,99131.30
2023-05-15T16:31:42.824Z,99127.39
2023-05-15T16:36:45.446Z,99119.46
2023-05-15T16:41:47.963Z,99112.95
2023-05-15T16:46:50.586Z,99109.83
2023-05-15T16:51:53.468Z,99088.95
2023-05-15T16:56:56.203Z,99082.34
2023-05-15T17:01:59.347Z,99085.12
2023-05-15T17:07:01.928Z,99091.55
2023-05-15T17:12:04.935Z,99099.16
2023-05-15T17:17:07.456Z,99093.06
2023-05-15T17:22:09.970Z,99093.67
2023-05-15T17:27:12.485Z,99089.38
2023-05-15T17:32:16.672Z,99092.66
2023-05-15T17:37:19.598Z,99088.23
2023-05-15T17:42:22.153Z,99085.95
2023-05-15T17:47:24.896Z,99084.60
2023-05-15T17:52:27.727Z,99082.49
2023-05-15T17:57:30.282Z,99081.80
2023-05-15T18:02:32.885Z,99078.38
2023-05-15T18:07:35.576Z,99076.56
2023-05-15T18:12:38.100Z,99073.99
2023-05-15T18:17:40.752Z,99075.30
2023-05-15T18:22:44.648Z,99085.05
2023-05-15T18:27:47.191Z,99093.09
2023-05-15T18:32:50.031Z,99091.57
2023-05-15T18:37:52.610Z,99093.06
2023-05-15T18:42:55.772Z,99094.13
2023-05-15T18:47:58.487Z,99091.05
2023-05-15T18:53:01.362Z,99091.39
2023-05-15T18:58:03.955Z,99098.58
2023-05-15T19:03:08.746Z,99097.11
2023-05-15T19:08:11.422Z,99098.86
2023-05-15T19:13:13.998Z,99092.29
2023-05-15T19:18:16.591Z,99092.78
2023-05-15T19:23:20.801Z,99082.87
2023-05-15T19:28:23.352Z,99074.67
2023-05-15T19:33:25.920Z,99076.23
2023-05-15T19:38:28.488Z,99077.64
2023-05-15T19:43:35.705Z,99076.88
2023-05-15T19:48:38.461Z,99078.96
2023-05-15T19:53:41.498Z,99074.20
2023-05-15T19:58:44.263Z,99070.13
2023-05-15T20:03:49.979Z,99075.08
2023-05-15T20:08:52.773Z,99076.11
2023-05-15T20:13:57.961Z,99071.52
2023-05-15T20:19:00.553Z,99072.19
2023-05-15T20:24:04.409Z,99073.06
2023-05-15T20:29:06.987Z,99074.90
2023-05-15T20:34:09.754Z,99073.60
2023-05-15T20:39:12.261Z,99070.66
2023-05-15T20:44:15.059Z,99074.16
2023-05-15T20:49:17.698Z,99064.29
2023-05-15T20:54:20.277Z,99055.35
2023-05-15T20:59:22.967Z,99048.67
2023-05-15T21:04:25.789Z,99054.25
2023-05-15T21:09:28.310Z,99048.00
2023-05-15T21:14:31.195Z,99042.98
2023-05-15T21:19:33.778Z,99044.28
2023-05-15T21:24:36.479Z,99043.33
2023-05-15T21:29:38.982Z,99042.24
2023-05-15T21:34:41.692Z,99039.27
2023-05-15T21:39:45.467Z,99037.75
2023-05-15T21:44:47.964Z,99036.52
2023-05-15T21:49:50.626Z,99028.30
2023-05-15T21:54:53.125Z,99025.38
2023-05-15T21:59:55.654Z,99024.71
2023-05-15T22:04:58.162Z,99020.64
2023-05-15T22:10:01.433Z,99018.77
2023-05-15T22:15:04.336Z,99010.20
2023-05-15T22:20:11.255Z,99012.53
2023-05-15T22:25:13.826Z,99018.06
2023-05-15T22:30:16.478Z,99020.95
2023-05-15T22:35:19.133Z,99019.50
2023-05-15T22:40:21.609Z,99020.74
2023-05-15T22:45:24.274Z,99017.64
2023-05-15T22:50:27.500Z,99012.92
2023-05-15T22:55:30.304Z,99008.84
2023-05-15T23:00:33.471Z,99003.35
2023-05-15T23:05:36.081Z,98994.27
2023-05-15T23:10:38.708Z,98991.20
2023-05-15T23:15:41.316Z,98990.95
2023-05-15T23:20:43.885Z,98991.77
2023-05-15T23:25:46.377Z,98990.95
2023-05-15T23:30:51.885Z,98992.29
2023-05-15T23:35:54.470Z,98984.64
2023-05-15T23:40:57.008Z,98985.65
2023-05-15T23:45:59.533Z,98985.13
2023-05-15T23:51:02.385Z,98984.77
2023-05-15T23:56:06.073Z,98987.41
